Time;durP1;ratioP1;P1;durP2;ratioP2;P2;SDS_P1;SDS_P2;PMS_P1;PMS_P2;Temp;Humidity;BMP_temperature;BMP_pressure;BME280_temperature;BME280_humidity;BME280_pressure;Samples;Min_cycle;Max_cycle;Signal;HPM_P1;HPM_P2
2023/10/17 00:01:47;;;;;;;7.17;4.07;;;8.50;91.90;;;;;;5052696;28;20420;-66
2023/10/17 00:06:45;;;;;;;4.23;3.17;;;8.50;91.90;;;;;;5051838;28;20814;-64
2023/10/17 00:09:26;;;;;;;8.53;3.53;;;8.50;91.90;;;;;;5052851;28;20493;-66
2023/10/17 00:14:34;;;;;;;4.27;3.77;;;8.50;91.90;;;;;;5052888;28;20371;-66
2023/10/17 00:17:00;;;;;;;6.17;4.13;;;8.50;91.90;;;;;;5052571;28;20943;-67
2023/10/17 00:19:28;;;;;;;7.03;3.80;;;8.50;91.90;;;;;;5052673;28;20397;-66
2023/10/17 00:21:54;;;;;;;4.33;4.03;;;8.50;91.90;;;;;;5052244;28;20462;-68
2023/10/17 00:24:20;;;;;;;6.83;3.90;;;8.60;91.90;;;;;;5052218;28;20487;-67
2023/10/17 00:26:49;;;;;;;4.97;3.43;;;8.60;91.90;;;;;;5052107;28;20740;-64
2023/10/17 00:29:15;;;;;;;3.90;3.60;;;8.50;91.90;;;;;;5052554;28;20178;-67
2023/10/17 00:31:43;;;;;;;4.97;3.50;;;8.50;91.90;;;;;;5052427;28;20960;-65
2023/10/17 00:34:16;;;;;;;4.73;3.23;;;8.50;91.90;;;;;;5052607;28;20474;-66
2023/10/17 00:36:48;;;;;;;3.37;3.13;;;8.50;91.90;;;;;;5051473;28;20413;-66
2023/10/17 00:39:30;;;;;;;7.03;3.60;;;8.50;91.90;;;;;;5050808;28;20823;-65
2023/10/17 00:44:32;;;;;;;4.27;3.60;;;8.50;91.90;;;;;;5055566;28;20417;-73
2023/10/17 00:46:59;;;;;;;3.47;3.17;;;8.60;92.00;;;;;;5056082;28;20960;-66
2023/10/17 00:49:26;;;;;;;5.63;3.60;;;8.60;92.00;;;;;;5054986;28;20392;-65
2023/10/17 00:51:55;;;;;;;3.23;3.03;;;8.60;91.90;;;;;;5056056;28;20458;-65
2023/10/17 00:54:29;;;;;;;5.70;3.00;;;8.60;91.90;;;;;;5055902;28;20376;-65
2023/10/17 00:56:55;;;;;;;7.33;3.20;;;8.60;91.90;;;;;;5055220;28;20474;-68
2023/10/17 00:59:25;;;;;;;3.53;3.00;;;8.60;91.90;;;;;;5056195;28;20739;-64
2023/10/17 01:01:55;;;;;;;3.43;3.10;;;8.60;91.90;;;;;;5054661;28;20427;-67
2023/10/17 01:04:23;;;;;;;3.27;3.00;;;8.60;94.40;;;;;;5055835;28;20408;-65
2023/10/17 01:06:55;;;;;;;5.20;2.73;;;8.60;95.40;;;;;;5055147;28;20490;-65
2023/10/17 01:09:24;;;;;;;3.07;2.87;;;8.60;97.00;;;;;;5055887;28;20419;-66
2023/10/17 01:11:50;;;;;;;4.43;3.13;;;8.60;96.70;;;;;;5055130;28;20466;-66
2023/10/17 01:14:19;;;;;;;3.90;2.90;;;8.60;95.10;;;;;;5054752;28;20418;-65
2023/10/17 01:16:51;;;;;;;4.10;2.77;;;8.60;95.30;;;;;;5054740;28;20861;-65
2023/10/17 01:19:19;;;;;;;8.77;2.80;;;8.60;91.90;;;;;;5055641;28;20503;-67
2023/10/17 01:21:45;;;;;;;2.63;2.43;;;8.60;91.90;;;;;;5055639;28;20461;-65
2023/10/17 01:24:12;;;;;;;3.13;2.40;;;8.60;91.90;;;;;;5055721;28;20383;-67
2023/10/17 01:26:38;;;;;;;6.00;2.80;;;8.60;91.90;;;;;;5054666;28;20429;-65
2023/10/17 01:29:11;;;;;;;3.43;3.23;;;8.60;91.90;;;;;;5054707;28;20416;-66
2023/10/17 01:31:43;;;;;;;4.57;3.20;;;8.50;91.90;;;;;;5055407;28;20448;-65
2023/10/17 01:34:09;;;;;;;5.43;3.00;;;8.50;91.90;;;;;;5055490;28;20409;-66
2023/10/17 01:36:35;;;;;;;3.10;2.63;;;8.50;91.90;;;;;;5054434;28;20948;-66
2023/10/17 01:39:06;;;;;;;9.07;2.70;;;8.50;91.90;;;;;;5055228;28;20421;-66
2023/10/17 01:41:32;;;;;;;3.13;2.83;;;8.40;91.90;;;;;;5055173;28;20409;-65
2023/10/17 01:43:58;;;;;;;4.30;2.73;;;8.40;91.80;;;;;;5055226;28;20402;-65
2023/10/17 01:46:28;;;;;;;5.10;2.87;;;8.40;91.90;;;;;;5054235;28;20790;-65
2023/10/17 01:48:55;;;;;;;3.37;3.07;;;8.40;91.90;;;;;;5054493;28;20387;-67
2023/10/17 01:51:26;;;;;;;8.13;2.60;;;8.30;91.80;;;;;;5054930;28;20443;-65
2023/10/17 01:53:53;;;;;;;2.77;2.57;;;8.40;91.90;;;;;;5054815;28;20408;-64
2023/10/17 01:56:26;;;;;;;3.27;2.20;;;8.40;91.90;;;;;;5053927;28;20441;-64
2023/10/17 01:58:55;;;;;;;4.47;2.57;;;8.40;91.90;;;;;;5054969;28;20377;-65
2023/10/17 02:01:31;;;;;;;2.77;2.13;;;8.30;91.80;;;;;;5054901;28;20899;-65
2023/10/17 02:04:05;;;;;;;2.67;2.53;;;8.30;91.80;;;;;;5054656;28;20404;-67
2023/10/17 02:06:33;;;;;;;4.03;2.80;;;8.20;91.80;;;;;;5053390;28;20447;-66
2023/10/17 02:08:59;;;;;;;3.20;2.90;;;8.20;91.80;;;;;;5054768;28;20568;-64
2023/10/17 02:11:32;;;;;;;3.93;2.63;;;8.20;92.90;;;;;;5054644;28;20971;-66
2023/10/17 02:13:59;;;;;;;3.23;2.30;;;8.10;91.70;;;;;;5054691;28;20740;-64
2023/10/17 02:16:32;;;;;;;5.30;2.80;;;8.10;91.70;;;;;;5052375;28;20501;-64
2023/10/17 02:19:05;;;;;;;4.97;3.30;;;8.00;91.70;;;;;;5054513;28;20438;-68
2023/10/17 02:21:31;;;;;;;5.10;3.00;;;8.00;91.70;;;;;;5052616;28;20816;-66
2023/10/17 02:23:57;;;;;;;5.93;2.87;;;8.00;91.70;;;;;;5054450;28;20462;-64
2023/10/17 02:26:25;;;;;;;3.03;2.83;;;7.90;91.70;;;;;;5053464;28;20272;-65
2023/10/17 02:28:53;;;;;;;3.60;2.97;;;7.90;91.70;;;;;;5054495;28;20633;-67
2023/10/17 02:31:40;;;;;;;3.00;2.80;;;7.80;91.60;;;;;;5053121;28;20475;-64
2023/10/17 02:34:09;;;;;;;6.37;3.23;;;7.80;91.60;;;;;;5054334;28;20409;-64
2023/10/17 02:36:35;;;;;;;4.50;2.90;;;7.80;91.60;;;;;;5053262;28;20432;-64
2023/10/17 02:39:01;;;;;;;3.37;3.07;;;7.80;91.60;;;;;;5053595;28;20399;-64
2023/10/17 02:41:30;;;;;;;4.03;3.40;;;7.80;91.60;;;;;;5052912;28;20782;-65
2023/10/17 02:43:56;;;;;;;2.90;2.70;;;7.80;91.70;;;;;;5053998;28;20736;-66
2023/10/17 02:46:29;;;;;;;3.23;2.93;;;7.80;91.70;;;;;;5052936;28;20401;-64
2023/10/17 02:48:55;;;;;;;5.33;2.67;;;7.70;91.60;;;;;;5054035;28;20634;-67
2023/10/17 02:53:51;;;;;;;4.00;3.13;;;7.50;91.50;;;;;;5053928;28;20394;-65
2023/10/17 02:56:18;;;;;;;2.73;2.53;;;7.60;91.60;;;;;;5052925;28;20470;-65
2023/10/17 02:58:59;;;;;;;2.93;2.63;;;7.60;95.00;;;;;;5053287;28;20769;-66
2023/10/17 03:01:27;;;;;;;6.40;2.87;;;7.60;95.00;;;;;;5053873;28;20804;-65
2023/10/17 03:03:53;;;;;;;2.97;2.77;;;7.60;94.50;;;;;;5053622;28;20407;-66
2023/10/17 03:06:18;;;;;;;3.20;2.40;;;7.60;95.50;;;;;;5050815;28;20460;-64
2023/10/17 03:08:51;;;;;;;2.50;2.27;;;7.60;94.30;;;;;;5053689;28;20176;-65
2023/10/17 03:11:47;;;;;;;4.27;2.53;;;7.60;94.80;;;;;;5053487;28;20257;-64
2023/10/17 03:16:52;;;;;;;3.33;3.03;;;7.60;95.50;;;;;;5061248;28;20996;-67
2023/10/17 03:19:26;;;;;;;3.30;3.00;;;7.60;95.00;;;;;;5052997;28;20390;-65
2023/10/17 03:21:56;;;;;;;2.83;2.70;;;7.60;96.40;;;;;;5053304;28;20402;-67
2023/10/17 03:27:08;;;;;;;2.60;2.47;;;7.60;99.80;;;;;;5053492;28;20421;-65
2023/10/17 03:29:41;;;;;;;3.10;2.80;;;7.70;99.90;;;;;;5053223;28;20766;-67
2023/10/17 03:32:13;;;;;;;7.13;2.27;;;7.70;99.90;;;;;;5053004;28;20946;-66
2023/10/17 03:34:44;;;;;;;5.70;2.50;;;7.70;99.90;;;;;;5051114;28;20439;-65
2023/10/17 03:39:52;;;;;;;3.03;2.83;;;7.70;99.90;;;;;;5052867;28;20410;-65
2023/10/17 03:45:13;;;;;;;4.80;3.20;;;7.80;99.90;;;;;;5052397;28;20451;-64
2023/10/17 03:47:49;;;;;;;5.30;3.07;;;7.70;99.90;;;;;;5052894;28;20426;-65
2023/10/17 03:50:31;;;;;;;3.43;3.13;;;7.80;99.90;;;;;;5052751;28;20491;-67
2023/10/17 03:53:04;;;;;;;3.87;3.57;;;7.80;99.90;;;;;;5052862;28;20397;-65
2023/10/17 03:55:30;;;;;;;7.00;3.37;;;7.90;99.90;;;;;;5051458;28;20404;-66
2023/10/17 03:57:55;;;;;;;6.53;3.83;;;7.90;99.90;;;;;;5052885;28;20383;-65
2023/10/17 04:00:29;;;;;;;3.40;3.10;;;7.90;99.90;;;;;;5051495;28;20421;-64
2023/10/17 04:02:55;;;;;;;3.80;3.13;;;7.90;99.90;;;;;;5052872;28;20958;-67
2023/10/17 04:05:23;;;;;;;4.17;3.77;;;8.00;99.90;;;;;;5050837;28;20436;-64
2023/10/17 04:07:53;;;;;;;3.50;3.10;;;8.00;99.90;;;;;;5052909;28;20650;-65
2023/10/17 04:10:22;;;;;;;4.93;3.80;;;8.10;99.90;;;;;;5052538;28;20415;-65
2023/10/17 04:12:49;;;;;;;4.20;3.90;;;8.00;99.90;;;;;;5052367;28;20898;-65
2023/10/17 04:15:18;;;;;;;4.70;3.63;;;8.10;99.90;;;;;;5051638;28;20393;-66
2023/10/17 04:17:47;;;;;;;5.67;3.60;;;8.10;99.90;;;;;;5053482;28;20423;-68
2023/10/17 04:20:13;;;;;;;4.80;3.03;;;8.10;99.90;;;;;;5055790;28;20420;-66
2023/10/17 04:22:40;;;;;;;9.00;3.63;;;8.10;99.90;;;;;;5056713;28;20453;-65
2023/10/17 04:28:04;;;;;;;5.97;3.23;;;8.10;98.00;;;;;;5066382;28;20427;-68
2023/10/17 04:30:30;;;;;;;6.17;3.13;;;8.20;97.60;;;;;;5055579;28;20455;-67
2023/10/17 04:33:14;;;;;;;4.20;2.63;;;8.20;96.80;;;;;;5056543;28;20492;-65
2023/10/17 04:35:59;;;;;;;5.63;3.07;;;8.20;92.40;;;;;;5055603;28;20167;-67
2023/10/17 04:43:55;;;;;;;4.80;3.30;;;8.20;91.80;;;;;;5056355;28;20397;-63
2023/10/17 04:46:34;;;;;;;3.10;2.90;;;8.20;91.80;;;;;;5054722;28;20430;-64
2023/10/17 04:49:17;;;;;;;8.93;4.30;;;8.10;91.80;;;;;;5056112;28;20960;-68
2023/10/17 04:51:43;;;;;;;3.17;2.97;;;8.10;91.70;;;;;;5054803;28;20539;-65
2023/10/17 04:54:22;;;;;;;2.97;2.77;;;8.20;91.80;;;;;;5056303;28;20495;-66
2023/10/17 04:57:08;;;;;;;3.23;3.03;;;8.20;91.80;;;;;;5055401;28;20300;-65
2023/10/17 04:59:41;;;;;;;4.80;2.87;;;8.20;91.80;;;;;;5055982;28;20419;-65
2023/10/17 05:07:58;;;;;;;7.00;3.53;;;8.30;91.80;;;;;;5055959;28;20423;-64
2023/10/17 06:18:57;;;;;;;6.00;4.00;;;8.60;59.80;;;;;;5054505;28;20450;-65
2023/10/17 06:21:35;;;;;;;8.43;4.07;;;8.60;57.20;;;;;;5054510;28;20444;-66
2023/10/17 06:24:44;;;;;;;12.53;5.10;;;8.70;57.20;;;;;;5054599;28;20455;-64
2023/10/17 06:26:59;;;;;;;10.13;4.93;;;8.70;53.70;;;;;;5053455;28;20429;-68
2023/10/17 06:34:23;;;;;;;10.13;5.00;;;8.70;39.50;;;;;;5054269;28;20401;-69
2023/10/17 06:36:55;;;;;;;5.23;3.63;;;8.60;37.50;;;;;;5053587;28;20396;-66
2023/10/17 06:39:24;;;;;;;5.13;3.50;;;8.70;41.00;;;;;;5054237;28;20788;-65
2023/10/17 06:41:52;;;;;;;5.67;2.80;;;8.70;40.10;;;;;;5053259;28;20390;-65
2023/10/17 06:44:26;;;;;;;10.20;3.47;;;8.70;37.00;;;;;;5054109;28;20405;-65
2023/10/17 06:46:56;;;;;;;3.87;3.20;;;8.70;36.20;;;;;;5052821;28;20429;-67
2023/10/17 06:54:52;;;;;;;5.80;3.37;;;8.80;25.10;;;;;;5053098;28;20405;-66
2023/10/17 06:57:19;;;;;;;4.90;4.33;;;8.90;20.00;;;;;;5053824;28;20409;-64
2023/10/17 06:59:52;;;;;;;7.03;3.00;;;8.90;18.70;;;;;;5053721;28;20451;-64
2023/10/17 07:02:27;;;;;;;3.70;3.40;;;8.90;17.00;;;;;;5053452;28;20939;-66
2023/10/17 07:05:00;;;;;;;3.70;3.37;;;9.00;16.50;;;;;;5051260;28;20440;-68
2023/10/17 07:07:39;;;;;;;4.93;3.70;;;9.10;17.40;;;;;;5052638;28;20470;-68
2023/10/17 07:10:36;;;;;;;3.10;2.90;;;9.10;16.80;;;;;;5053617;28;20836;-65
2023/10/17 07:13:41;;;;;;;6.73;2.97;;;9.10;16.20;;;;;;5053502;28;20402;-64
2023/10/17 07:16:41;;;;;;;3.60;3.00;;;9.20;15.20;;;;;;5052548;28;20900;-66
2023/10/17 07:24:26;;;;;;;4.57;3.10;;;9.30;1.00;;;;;;5053552;28;20408;-68
2023/10/17 07:26:52;;;;;;;4.33;2.30;;;9.30;1.00;;;;;;5052266;28;20437;-66
2023/10/17 07:29:22;;;;;;;2.20;2.10;;;9.30;1.00;;;;;;5052305;28;20414;-67
2023/10/17 07:32:00;;;;;;;2.90;2.30;;;9.40;1.00;;;;;;5053129;28;20407;-65
2023/10/17 07:34:33;;;;;;;2.57;2.37;;;9.40;1.00;;;;;;5053004;28;20393;-63
2023/10/17 07:37:12;;;;;;;3.23;2.30;;;9.50;1.00;;;;;;5053088;28;20415;-62
2023/10/17 07:39:38;;;;;;;3.33;2.13;;;9.60;1.00;;;;;;5052653;28;20425;-61
2023/10/17 07:42:14;;;;;;;5.00;2.20;;;9.60;1.00;;;;;;5051090;28;20511;-66
2023/10/17 07:44:41;;;;;;;2.10;1.90;;;9.60;1.00;;;;;;5050813;28;20409;-63
2023/10/17 07:47:21;;;;;;;2.40;2.20;;;9.70;1.00;;;;;;5052634;28;20400;-64
2023/10/17 07:49:50;;;;;;;5.93;2.40;;;9.70;1.00;;;;;;5052685;28;20437;-63
2023/10/17 07:52:16;;;;;;;3.03;2.00;;;9.90;1.00;;;;;;5052435;28;20782;-65
2023/10/17 07:54:55;;;;;;;3.30;2.20;;;9.90;1.00;;;;;;5050706;28;20440;-64
2023/10/17 07:57:28;;;;;;;2.97;2.60;;;9.80;1.00;;;;;;5052757;28;20475;-62
2023/10/17 07:59:57;;;;;;;2.30;2.07;;;9.90;1.00;;;;;;5052765;28;20368;-65
2023/10/17 08:02:23;;;;;;;5.47;2.37;;;10.00;1.00;;;;;;5052877;28;20397;-62
2023/10/17 08:04:51;;;;;;;2.30;2.10;;;10.00;1.00;;;;;;5051766;28;20395;-62
2023/10/17 08:07:20;;;;;;;3.50;2.30;;;10.10;1.00;;;;;;5052740;28;20407;-65
2023/10/17 08:09:59;;;;;;;1.93;1.83;;;10.10;1.00;;;;;;5052685;28;20383;-65
2023/10/17 08:12:29;;;;;;;2.43;2.23;;;10.20;1.00;;;;;;5052751;28;20463;-62
2023/10/17 08:15:19;;;;;;;1.90;1.80;;;10.20;1.00;;;;;;5050827;28;20872;-62
2023/10/17 08:17:44;;;;;;;4.70;2.87;;;10.30;1.00;;;;;;5052703;28;20392;-62
2023/10/17 08:25:30;;;;;;;4.83;3.00;;;10.50;1.00;;;;;;5050208;28;20383;-62
2023/10/17 08:27:56;;;;;;;4.20;2.70;;;10.50;1.00;;;;;;5052321;28;20433;-62
2023/10/17 08:30:27;;;;;;;4.40;2.90;;;10.50;1.00;;;;;;5051339;28;20419;-62
2023/10/17 08:35:40;;;;;;;2.80;2.60;;;10.60;1.00;;;;;;5049278;28;20432;-65
2023/10/17 08:38:07;;;;;;;2.53;2.17;;;10.70;1.00;;;;;;5052313;28;20409;-67
2023/10/17 08:43:10;;;;;;;5.40;3.13;;;10.90;1.00;;;;;;5051950;28;20364;-62
2023/10/17 08:45:38;;;;;;;3.87;2.73;;;11.00;1.00;;;;;;5051365;28;20412;-63
2023/10/17 08:48:09;;;;;;;7.53;3.30;;;11.10;1.00;;;;;;5051871;28;20403;-66
2023/10/17 08:50:39;;;;;;;5.93;3.67;;;11.10;1.00;;;;;;5051436;28;20573;-63
2023/10/17 08:55:44;;;;;;;5.20;3.40;;;11.30;1.00;;;;;;5051492;28;20376;-65
2023/10/17 08:58:10;;;;;;;4.27;3.40;;;11.50;1.00;;;;;;5052326;28;20374;-64
2023/10/17 09:01:20;;;;;;;5.37;3.67;;;11.50;1.00;;;;;;5052055;28;20376;-70
2023/10/17 09:03:31;;;;;;;5.73;3.27;;;11.60;1.00;;;;;;5054576;28;20409;-65
2023/10/17 09:05:58;;;;;;;9.47;3.60;;;11.60;1.00;;;;;;5054295;28;20419;-68
2023/10/17 09:08:46;;;;;;;6.47;3.80;;;11.70;1.00;;;;;;5055188;28;20375;-65
2023/10/17 09:11:15;;;;;;;3.80;3.50;;;11.60;1.00;;;;;;5055722;28;20423;-67
2023/10/17 09:16:15;;;;;;;3.83;3.53;;;11.50;1.00;;;;;;5054721;28;20384;-65
2023/10/17 09:18:49;;;;;;;5.70;3.77;;;11.60;1.00;;;;;;5054344;28;20463;-64
2023/10/17 09:21:21;;;;;;;8.50;4.30;;;11.60;1.00;;;;;;5054282;28;20167;-66
2023/10/17 09:23:47;;;;;;;5.40;3.00;;;11.70;1.00;;;;;;5055481;28;20740;-64
2023/10/17 09:26:20;;;;;;;5.17;2.90;;;11.80;1.00;;;;;;5039245;28;20769;-65
2023/10/17 09:28:47;;;;;;;14.13;3.33;;;11.80;1.00;;;;;;5035411;28;20380;-65
2023/10/17 09:31:15;;;;;;;5.23;2.83;;;11.70;1.00;;;;;;5035447;28;20453;-65
2023/10/17 09:33:45;;;;;;;19.30;3.00;;;11.60;1.00;;;;;;5035439;28;20410;-65
2023/10/17 09:36:18;;;;;;;5.30;2.67;;;11.50;1.00;;;;;;5034469;28;20397;-64
2023/10/17 09:38:45;;;;;;;5.33;2.50;;;11.60;1.00;;;;;;5035146;28;20358;-65
2023/10/17 09:41:18;;;;;;;3.07;2.73;;;11.80;1.00;;;;;;5035173;28;20381;-64
2023/10/17 09:43:45;;;;;;;4.67;2.87;;;12.00;1.00;;;;;;5034470;28;20417;-65
2023/10/17 09:46:14;;;;;;;17.73;5.00;;;12.30;1.00;;;;;;5033817;28;20396;-64
2023/10/17 09:48:46;;;;;;;11.50;3.70;;;12.40;1.00;;;;;;5033747;28;20397;-65
2023/10/17 09:51:24;;;;;;;6.97;2.80;;;12.80;1.00;;;;;;5034816;28;20449;-64
2023/10/17 09:53:54;;;;;;;4.73;3.43;;;13.20;1.00;;;;;;5034996;28;20377;-65
2023/10/17 09:56:31;;;;;;;3.50;2.53;;;13.80;1.00;;;;;;5034117;28;20393;-64
2023/10/17 09:59:05;;;;;;;3.47;2.90;;;14.30;1.00;;;;;;5034935;28;20405;-65
2023/10/17 10:01:35;;;;;;;6.23;2.30;;;14.70;1.00;;;;;;5033139;28;20409;-65
2023/10/17 10:04:01;;;;;;;7.87;2.20;;;15.00;1.00;;;;;;5033099;28;20459;-66
2023/10/17 10:06:32;;;;;;;3.00;2.10;;;15.50;1.00;;;;;;5033751;28;20428;-65
2023/10/17 10:09:13;;;;;;;3.23;2.40;;;15.60;1.00;;;;;;5034732;28;20393;-65
2023/10/17 10:11:48;;;;;;;4.30;2.77;;;15.60;1.00;;;;;;5034708;28;20769;-65
2023/10/17 10:14:15;;;;;;;3.03;2.47;;;15.20;1.00;;;;;;5034558;28;20405;-65
2023/10/17 10:16:54;;;;;;;5.47;3.27;;;14.50;1.00;;;;;;5032350;28;20409;-64
2023/10/17 10:19:24;;;;;;;10.30;2.70;;;14.10;1.00;;;;;;5034468;28;20453;-65
2023/10/17 10:22:00;;;;;;;4.33;3.00;;;14.20;1.00;;;;;;5033365;28;20406;-65
2023/10/17 10:24:31;;;;;;;3.20;2.30;;;14.00;1.00;;;;;;5032921;28;20384;-68
2023/10/17 10:27:27;;;;;;;5.53;2.20;;;13.70;1.00;;;;;;5034408;28;20433;-65
2023/10/17 10:30:32;;;;;;;4.37;3.23;;;13.60;1.00;;;;;;5034233;28;20489;-65
2023/10/17 10:32:59;;;;;;;6.13;3.30;;;13.40;1.00;;;;;;5034343;28;20767;-64
2023/10/17 10:35:25;;;;;;;3.10;2.10;;;13.30;1.00;;;;;;5033264;28;20501;-65
2023/10/17 10:37:53;;;;;;;3.40;2.60;;;13.30;1.00;;;;;;5034104;28;20510;-65
2023/10/17 10:40:24;;;;;;;3.53;2.37;;;13.20;1.00;;;;;;5033498;28;20221;-67
2023/10/17 10:42:56;;;;;;;4.10;2.00;;;13.20;1.00;;;;;;5034630;28;20497;-65
2023/10/17 10:45:57;;;;;;;3.20;2.20;;;13.30;1.00;;;;;;5031693;28;20400;-66
2023/10/17 10:48:23;;;;;;;4.23;2.80;;;13.60;1.00;;;;;;5033770;28;20397;-71
2023/10/17 10:50:55;;;;;;;2.83;2.47;;;13.70;1.00;;;;;;5033868;28;20467;-65
2023/10/17 10:53:31;;;;;;;4.50;2.60;;;13.80;1.00;;;;;;5033692;28;20413;-65
2023/10/17 10:56:09;;;;;;;3.00;1.80;;;13.70;1.00;;;;;;5032848;28;20422;-65
2023/10/17 10:58:51;;;;;;;3.37;2.33;;;13.70;1.00;;;;;;5032384;28;20408;-66
2023/10/17 11:01:18;;;;;;;2.73;2.10;;;13.70;1.00;;;;;;5033480;28;20381;-65
2023/10/17 11:03:48;;;;;;;5.30;2.97;;;13.70;1.00;;;;;;5033607;28;20412;-67
2023/10/17 11:06:19;;;;;;;4.60;1.80;;;13.70;1.00;;;;;;5032513;28;20461;-65
2023/10/17 11:08:46;;;;;;;3.10;2.13;;;13.80;1.00;;;;;;5033538;28;20428;-64
2023/10/17 11:11:16;;;;;;;4.50;2.53;;;13.80;1.00;;;;;;5033284;28;20475;-65
2023/10/17 11:13:50;;;;;;;3.00;2.37;;;14.00;1.00;;;;;;5033480;28;20406;-66
2023/10/17 11:16:20;;;;;;;3.83;2.30;;;13.90;1.00;;;;;;5031715;28;20432;-65
2023/10/17 11:18:47;;;;;;;4.63;2.70;;;13.80;1.00;;;;;;5033290;28;20392;-65
2023/10/17 11:21:14;;;;;;;6.80;2.83;;;13.70;1.00;;;;;;5033531;28;20488;-65
2023/10/17 11:23:46;;;;;;;4.13;2.43;;;13.60;1.00;;;;;;5033537;28;20384;-65
2023/10/17 11:26:12;;;;;;;2.83;2.30;;;13.70;1.00;;;;;;5032106;28;20430;-64
2023/10/17 11:28:51;;;;;;;2.90;2.20;;;14.00;1.00;;;;;;5033223;28;20479;-65
2023/10/17 11:31:27;;;;;;;7.50;2.60;;;14.30;1.00;;;;;;5033083;28;20428;-65
2023/10/17 11:34:04;;;;;;;2.33;2.00;;;14.20;1.00;;;;;;5032305;28;20401;-65
2023/10/17 11:36:36;;;;;;;4.63;2.20;;;14.20;1.00;;;;;;5031676;28;20404;-65
2023/10/17 11:39:07;;;;;;;21.40;5.73;;;13.90;1.00;;;;;;5033199;28;20876;-64
2023/10/17 11:41:45;;;;;;;3.93;2.70;;;13.80;1.00;;;;;;5034961;28;20898;-67
2023/10/17 11:44:13;;;;;;;3.00;1.97;;;13.80;1.00;;;;;;5052958;28;20921;-65
2023/10/17 11:46:48;;;;;;;6.37;3.43;;;13.90;1.00;;;;;;5050647;28;20438;-64
2023/10/17 11:49:21;;;;;;;3.33;1.90;;;13.80;1.00;;;;;;5052713;28;20475;-63
2023/10/17 11:52:05;;;;;;;3.93;1.97;;;13.70;99.90;;;;;;5051465;28;20447;-65
2023/10/17 11:54:32;;;;;;;2.27;1.80;;;13.70;99.90;;;;;;5052196;28;20737;-75
2023/10/17 11:57:14;;;;;;;6.80;2.40;;;13.60;99.90;;;;;;5052747;28;20475;-63
2023/10/17 12:02:42;;;;;;;5.03;1.70;;;13.90;1.00;;;;;;5052402;28;20483;-63
2023/10/17 12:05:18;;;;;;;2.27;1.80;;;13.90;99.90;;;;;;5051858;28;20407;-64
2023/10/17 12:07:44;;;;;;;7.17;2.07;;;13.90;1.00;;;;;;5052680;28;20430;-72
2023/10/17 12:10:10;;;;;;;4.50;2.70;;;13.70;99.90;;;;;;5051395;28;20437;-63
2023/10/17 12:12:36;;;;;;;3.00;1.70;;;13.70;99.90;;;;;;5051337;28;20833;-63
2023/10/17 12:15:04;;;;;;;3.40;2.37;;;13.60;99.90;;;;;;5050466;28;20635;-70
2023/10/17 12:17:30;;;;;;;2.23;1.77;;;13.60;99.90;;;;;;5052468;28;21000;-65
2023/10/17 12:19:56;;;;;;;3.87;1.83;;;13.70;99.90;;;;;;5052488;28;20411;-65
2023/10/17 12:22:21;;;;;;;4.03;2.10;;;14.00;1.00;;;;;;5052482;28;20178;-71
2023/10/17 12:24:47;;;;;;;2.07;1.87;;;14.10;1.00;;;;;;5051725;28;20665;-65
2023/10/17 12:27:13;;;;;;;6.67;2.20;;;14.20;1.00;;;;;;5052388;28;20195;-65
2023/10/17 12:29:40;;;;;;;6.40;2.83;;;14.30;1.00;;;;;;5050256;28;20261;-64
2023/10/17 12:32:05;;;;;;;1.90;1.80;;;14.30;99.90;;;;;;5050536;28;20615;-66
2023/10/17 12:34:32;;;;;;;4.77;2.00;;;14.30;99.90;;;;;;5051606;28;20384;-75
2023/10/17 12:37:02;;;;;;;2.93;1.63;;;14.50;1.00;;;;;;5052300;28;20278;-65
2023/10/17 12:39:31;;;;;;;1.83;1.73;;;14.90;1.00;;;;;;5054640;28;20390;-64
2023/10/17 12:41:57;;;;;;;2.17;1.80;;;15.20;99.90;;;;;;5054892;28;20420;-67
2023/10/17 12:44:24;;;;;;;4.17;2.13;;;15.20;99.90;;;;;;5056022;28;20390;-76
2023/10/17 12:46:50;;;;;;;1.50;1.40;;;15.30;99.90;;;;;;5037848;28;20833;-65
2023/10/17 12:49:16;;;;;;;3.50;1.90;;;15.20;99.90;;;;;;5053748;28;20409;-64
2023/10/17 12:51:43;;;;;;;5.63;1.80;;;15.00;99.90;;;;;;5056123;28;20785;-65
2023/10/17 12:54:09;;;;;;;5.13;1.33;;;14.90;99.90;;;;;;5038401;28;20388;-65
2023/10/17 12:56:39;;;;;;;2.80;1.77;;;15.00;99.90;;;;;;5054870;28;20391;-64
2023/10/17 12:59:05;;;;;;;3.63;2.20;;;14.70;99.90;;;;;;5056235;28;20244;-71
2023/10/17 13:01:31;;;;;;;2.90;1.90;;;14.60;99.90;;;;;;5056010;28;20406;-65
2023/10/17 13:03:57;;;;;;;2.67;2.00;;;14.20;99.90;;;;;;5054658;28;20401;-64
2023/10/17 13:06:27;;;;;;;5.87;2.73;;;13.90;99.90;;;;;;5053677;28;20214;-67
2023/10/17 13:08:56;;;;;;;2.40;1.87;;;13.80;99.90;;;;;;5055881;28;20409;-64
2023/10/17 13:11:28;;;;;;;5.50;2.40;;;13.70;99.90;;;;;;5055519;28;20494;-65
2023/10/17 13:13:55;;;;;;;6.83;2.03;;;13.60;99.90;;;;;;5055753;28;20405;-64
2023/10/17 13:16:23;;;;;;;3.87;2.00;;;13.60;99.90;;;;;;5054818;28;20429;-70
2023/10/17 13:18:50;;;;;;;5.20;1.63;;;13.60;99.90;;;;;;5055272;28;20409;-64
2023/10/17 13:21:17;;;;;;;4.63;1.70;;;13.40;99.90;;;;;;5055792;28;20401;-64
2023/10/17 13:23:45;;;;;;;3.47;2.10;;;13.30;99.90;;;;;;5055599;28;20408;-64
2023/10/17 13:26:12;;;;;;;2.40;2.10;;;13.40;99.90;;;;;;5052930;28;20433;-65
2023/10/17 13:28:40;;;;;;;2.13;2.03;;;13.50;99.90;;;;;;5055461;28;20384;-64
2023/10/17 13:31:14;;;;;;;2.60;2.10;;;13.40;99.90;;;;;;5055410;28;21038;-64
2023/10/17 13:33:41;;;;;;;2.80;1.90;;;13.30;99.90;;;;;;5055543;28;20828;-64
2023/10/17 13:36:11;;;;;;;2.53;1.83;;;13.40;99.90;;;;;;5054582;28;20400;-64
2023/10/17 13:38:38;;;;;;;3.63;2.10;;;13.40;99.90;;;;;;5055391;28;20450;-65
2023/10/17 13:41:05;;;;;;;2.30;2.00;;;13.50;99.90;;;;;;5055538;28;20486;-65
2023/10/17 13:43:33;;;;;;;3.00;2.33;;;13.50;99.90;;;;;;5054774;28;20405;-65
2023/10/17 13:46:00;;;;;;;4.73;2.10;;;13.40;99.90;;;;;;5054342;28;20436;-65
2023/10/17 13:48:27;;;;;;;1.77;1.67;;;13.40;99.90;;;;;;5053945;28;20441;-65
2023/10/17 13:51:00;;;;;;;1.67;1.57;;;13.30;99.90;;;;;;5054468;28;20420;-67
2023/10/17 13:53:27;;;;;;;2.27;1.93;;;13.30;99.90;;;;;;5055299;28;20408;-65
2023/10/17 13:55:54;;;;;;;5.97;1.93;;;13.30;99.90;;;;;;5054050;28;20464;-65
2023/10/17 13:58:20;;;;;;;2.60;2.40;;;13.40;99.90;;;;;;5055138;28;20372;-65
2023/10/17 14:00:51;;;;;;;5.33;1.90;;;13.40;99.90;;;;;;5054808;28;20401;-70
2023/10/17 14:03:17;;;;;;;2.30;1.70;;;13.40;1.00;;;;;;5054596;28;20386;-65
2023/10/17 14:05:49;;;;;;;5.43;2.10;;;13.30;99.90;;;;;;5053814;28;20844;-65
2023/10/17 14:08:16;;;;;;;2.47;1.80;;;13.30;1.00;;;;;;5054931;28;20947;-66
2023/10/17 14:10:48;;;;;;;2.20;2.00;;;13.20;1.00;;;;;;5054738;28;20455;-65
2023/10/17 14:13:16;;;;;;;2.00;1.63;;;13.20;1.00;;;;;;5054703;28;20408;-65
2023/10/17 14:15:43;;;;;;;1.87;1.77;;;13.00;99.90;;;;;;5053656;28;20488;-65
2023/10/17 14:18:09;;;;;;;2.10;1.90;;;13.10;1.00;;;;;;5054590;28;20372;-65
2023/10/17 14:20:39;;;;;;;3.43;1.87;;;13.20;1.00;;;;;;5054185;28;20376;-65
2023/10/17 14:23:16;;;;;;;5.33;2.40;;;13.10;99.90;;;;;;5054487;28;20380;-65
2023/10/17 14:28:26;;;;;;;4.17;1.83;;;13.20;1.00;;;;;;5054445;28;20404;-64
2023/10/17 14:30:52;;;;;;;2.63;2.00;;;13.20;1.00;;;;;;5054414;28;20448;-68
2023/10/17 14:33:18;;;;;;;3.63;2.13;;;13.10;99.90;;;;;;5054370;28;20163;-65
2023/10/17 14:35:43;;;;;;;3.70;2.13;;;13.10;99.90;;;;;;5053501;28;20531;-64
2023/10/17 14:38:13;;;;;;;2.60;2.03;;;13.00;99.90;;;;;;5052772;28;20388;-64
2023/10/17 14:40:42;;;;;;;2.90;2.00;;;13.00;99.90;;;;;;5053946;28;20405;-65
2023/10/17 14:43:09;;;;;;;3.20;1.87;;;13.00;99.90;;;;;;5049508;28;20934;-68
2023/10/17 14:45:43;;;;;;;6.27;2.37;;;12.90;99.90;;;;;;5047279;28;20433;-66
2023/10/17 14:48:11;;;;;;;5.80;2.20;;;12.90;99.90;;;;;;5054189;28;20419;-65
2023/10/17 14:50:38;;;;;;;3.23;2.53;;;12.90;1.00;;;;;;5050715;28;20457;-65
2023/10/17 14:53:04;;;;;;;5.57;2.97;;;12.80;1.00;;;;;;5051599;28;20743;-68
2023/10/17 14:55:29;;;;;;;3.43;2.50;;;12.80;1.00;;;;;;5052819;28;20372;-67
2023/10/17 14:57:55;;;;;;;2.47;1.80;;;12.80;1.00;;;;;;5053544;28;20364;-66
2023/10/17 15:00:22;;;;;;;2.90;1.97;;;12.90;1.00;;;;;;5053906;28;20209;-65
2023/10/17 15:02:49;;;;;;;4.83;1.90;;;12.90;1.00;;;;;;5053164;28;20167;-65
2023/10/17 15:05:16;;;;;;;2.00;1.80;;;13.00;1.00;;;;;;5052925;28;20439;-65
2023/10/17 15:07:44;;;;;;;1.60;1.50;;;12.90;1.00;;;;;;5053534;28;20430;-64
2023/10/17 15:10:13;;;;;;;3.93;2.10;;;13.00;1.00;;;;;;5053641;28;20853;-64
2023/10/17 15:12:43;;;;;;;2.50;2.13;;;13.00;1.00;;;;;;5053836;28;20845;-65
2023/10/17 15:15:14;;;;;;;4.70;1.97;;;13.00;1.00;;;;;;5052183;28;20401;-67
2023/10/17 15:17:41;;;;;;;2.40;1.87;;;13.00;1.00;;;;;;5053261;28;20724;-64
2023/10/17 15:20:11;;;;;;;4.20;2.63;;;13.00;1.00;;;;;;5053548;28;20401;-65
2023/10/17 15:22:41;;;;;;;3.30;2.80;;;13.00;1.00;;;;;;5053425;28;20406;-65
2023/10/17 15:25:12;;;;;;;4.80;2.20;;;13.00;1.00;;;;;;5052583;28;20397;-64
2023/10/17 15:27:41;;;;;;;3.70;2.20;;;12.80;1.00;;;;;;5053356;28;20426;-64
2023/10/17 15:30:08;;;;;;;3.73;2.33;;;12.80;1.00;;;;;;5053377;28;20758;-64
2023/10/17 15:32:37;;;;;;;5.00;3.40;;;12.70;1.00;;;;;;5053297;28;20771;-64
2023/10/17 15:35:07;;;;;;;17.03;3.20;;;12.60;1.00;;;;;;5051593;28;20485;-65